sensor_id;sensor_type;location;lat;lon;timestamp;pressure;altitude;pressure_sealevel;temperature;humidity
69957;BME280;57283;54.816;9.482;2023-02-12T00:01:08;103035.63;;;7.52;100.00
69957;BME280;57283;54.816;9.482;2023-02-12T00:03:37;103040.00;;;7.56;100.00
69957;BME280;57283;54.816;9.482;2023-02-12T00:06:06;103033.81;;;7.50;100.00
69957;BME280;57283;54.816;9.482;2023-02-12T00:08:34;103017.59;;;7.24;100.00
69957;BME280;57283;54.816;9.482;2023-02-12T00:11:06;103036.88;;;7.32;100.00
69957;BME280;57283;54.816;9.482;2023-02-12T00:13:35;103049.91;;;7.33;100.00
69957;BME280;57283;54.816;9.482;2023-02-12T00:16:06;103051.81;;;7.42;100.00
69957;BME280;57283;54.816;9.482;2023-02-12T00:18:35;103038.38;;;7.24;100.00
69957;BME280;57283;54.816;9.482;2023-02-12T00:21:04;103031.44;;;7.23;100.00
69957;BME280;57283;54.816;9.482;2023-02-12T00:23:34;103053.31;;;7.31;100.00
69957;BME280;57283;54.816;9.482;2023-02-12T00:26:04;103029.34;;;7.08;100.00
69957;BME280;57283;54.816;9.482;2023-02-12T00:28:32;103070.41;;;7.23;100.00
69957;BME280;57283;54.816;9.482;2023-02-12T00:31:05;103070.50;;;7.26;100.00
69957;BME280;57283;54.816;9.482;2023-02-12T00:33:33;103065.47;;;7.32;100.00
69957;BME280;57283;54.816;9.482;2023-02-12T00:36:01;103071.66;;;7.37;100.00
69957;BME280;57283;54.816;9.482;2023-02-12T00:38:30;103024.53;;;7.23;100.00
69957;BME280;57283;54.816;9.482;2023-02-12T00:40:58;103065.13;;;7.56;100.00
69957;BME280;57283;54.816;9.482;2023-02-12T00:43:26;103066.91;;;7.21;100.00
69957;BME280;57283;54.816;9.482;2023-02-12T00:45:54;103064.53;;;7.30;100.00
69957;BME280;57283;54.816;9.482;2023-02-12T00:48:24;103069.34;;;7.49;100.00
69957;BME280;57283;54.816;9.482;2023-02-12T00:50:52;103083.09;;;7.45;100.00
69957;BME280;57283;54.816;9.482;2023-02-12T00:53:19;103083.19;;;7.48;100.00
69957;BME280;57283;54.816;9.482;2023-02-12T00:55:47;103074.47;;;7.46;100.00
69957;BME280;57283;54.816;9.482;2023-02-12T00:58:15;103083.31;;;7.54;100.00
69957;BME280;57283;54.816;9.482;2023-02-12T01:00:44;103078.81;;;7.47;100.00
69957;BME280;57283;54.816;9.482;2023-02-12T01:03:12;103084.09;;;7.50;100.00
69957;BME280;57283;54.816;9.482;2023-02-12T01:05:41;103079.75;;;7.49;100.00
69957;BME280;57283;54.816;9.482;2023-02-12T01:08:10;103079.81;;;7.52;100.00
69957;BME280;57283;54.816;9.482;2023-02-12T01:10:38;103078.19;;;7.57;100.00
69957;BME280;57283;54.816;9.482;2023-02-12T01:13:06;103076.38;;;7.53;100.00
69957;BME280;57283;54.816;9.482;2023-02-12T01:15:34;103074.38;;;7.43;100.00
69957;BME280;57283;54.816;9.482;2023-02-12T01:18:02;103078.06;;;7.51;100.00
69957;BME280;57283;54.816;9.482;2023-02-12T01:20:30;103080.81;;;7.59;100.00
69957;BME280;57283;54.816;9.482;2023-02-12T01:22:59;103069.38;;;7.51;100.00
69957;BME280;57283;54.816;9.482;2023-02-12T01:25:28;103084.91;;;7.48;100.00
69957;BME280;57283;54.816;9.482;2023-02-12T01:27:55;103085.06;;;7.55;100.00
69957;BME280;57283;54.816;9.482;2023-02-12T01:30:23;103085.28;;;7.28;100.00
69957;BME280;57283;54.816;9.482;2023-02-12T01:32:51;103088.97;;;7.38;100.00
69957;BME280;57283;54.816;9.482;2023-02-12T01:35:20;103073.34;;;7.35;100.00
69957;BME280;57283;54.816;9.482;2023-02-12T01:37:48;103084.03;;;7.47;100.00
69957;BME280;57283;54.816;9.482;2023-02-12T01:40:18;103077.94;;;7.47;100.00
69957;BME280;57283;54.816;9.482;2023-02-12T01:42:46;103084.50;;;7.31;100.00
69957;BME280;57283;54.816;9.482;2023-02-12T01:45:43;103082.22;;;7.45;100.00
69957;BME280;57283;54.816;9.482;2023-02-12T01:48:13;103059.97;;;7.20;100.00
69957;BME280;57283;54.816;9.482;2023-02-12T01:50:43;103093.22;;;7.33;100.00
69957;BME280;57283;54.816;9.482;2023-02-12T01:53:13;103089.53;;;7.25;100.00
69957;BME280;57283;54.816;9.482;2023-02-12T01:55:54;103091.28;;;7.26;100.00
69957;BME280;57283;54.816;9.482;2023-02-12T01:58:25;103095.06;;;7.37;100.00
69957;BME280;57283;54.816;9.482;2023-02-12T02:00:56;103098.09;;;7.21;100.00
69957;BME280;57283;54.816;9.482;2023-02-12T02:03:26;103097.28;;;7.23;100.00
69957;BME280;57283;54.816;9.482;2023-02-12T02:05:58;103096.50;;;7.26;100.00
69957;BME280;57283;54.816;9.482;2023-02-12T02:08:28;103103.00;;;7.09;100.00
69957;BME280;57283;54.816;9.482;2023-02-12T02:10:57;103087.19;;;6.99;100.00
69957;BME280;57283;54.816;9.482;2023-02-12T02:13:25;103096.94;;;7.10;100.00
69957;BME280;57283;54.816;9.482;2023-02-12T02:16:16;103099.25;;;6.97;100.00
69957;BME280;57283;54.816;9.482;2023-02-12T02:18:52;103097.84;;;7.10;100.00
69957;BME280;57283;54.816;9.482;2023-02-12T02:21:48;103083.50;;;6.91;100.00
69957;BME280;57283;54.816;9.482;2023-02-12T02:24:46;103104.75;;;7.10;100.00
69957;BME280;57283;54.816;9.482;2023-02-12T02:27:26;103088.84;;;6.97;100.00
69957;BME280;57283;54.816;9.482;2023-02-12T02:30:16;103101.22;;;7.08;100.00
69957;BME280;57283;54.816;9.482;2023-02-12T02:32:56;103094.41;;;7.11;100.00
69957;BME280;57283;54.816;9.482;2023-02-12T02:35:29;103085.50;;;7.02;100.00
69957;BME280;57283;54.816;9.482;2023-02-12T02:38:12;103078.47;;;6.97;100.00
69957;BME280;57283;54.816;9.482;2023-02-12T02:40:50;103093.03;;;6.92;100.00
69957;BME280;57283;54.816;9.482;2023-02-12T02:43:23;103097.28;;;6.89;100.00
69957;BME280;57283;54.816;9.482;2023-02-12T02:45:59;103058.66;;;6.68;100.00
69957;BME280;57283;54.816;9.482;2023-02-12T02:48:32;103107.31;;;6.75;100.00
69957;BME280;57283;54.816;9.482;2023-02-12T02:51:04;103104.22;;;6.90;100.00
69957;BME280;57283;54.816;9.482;2023-02-12T02:53:37;103107.75;;;6.92;100.00
69957;BME280;57283;54.816;9.482;2023-02-12T02:56:07;103098.22;;;6.92;100.00
69957;BME280;57283;54.816;9.482;2023-02-12T02:58:41;103107.16;;;7.02;100.00
69957;BME280;57283;54.816;9.482;2023-02-12T03:01:14;103108.53;;;6.89;100.00
69957;BME280;57283;54.816;9.482;2023-02-12T03:03:48;103107.22;;;6.72;100.00
69957;BME280;57283;54.816;9.482;2023-02-12T03:06:23;103113.41;;;6.77;100.00
69957;BME280;57283;54.816;9.482;2023-02-12T03:08:55;103109.44;;;6.58;100.00
69957;BME280;57283;54.816;9.482;2023-02-12T03:11:26;103111.84;;;6.51;100.00
69957;BME280;57283;54.816;9.482;2023-02-12T03:14:00;103110.97;;;6.50;100.00
69957;BME280;57283;54.816;9.482;2023-02-12T03:16:33;103111.94;;;6.55;100.00
69957;BME280;57283;54.816;9.482;2023-02-12T03:19:04;103113.13;;;6.67;100.00
69957;BME280;57283;54.816;9.482;2023-02-12T03:21:39;103087.81;;;6.28;100.00
69957;BME280;57283;54.816;9.482;2023-02-12T03:24:12;103121.19;;;6.46;100.00
69957;BME280;57283;54.816;9.482;2023-02-12T03:26:46;103121.28;;;6.49;100.00
69957;BME280;57283;54.816;9.482;2023-02-12T03:29:15;103121.78;;;6.36;100.00
69957;BME280;57283;54.816;9.482;2023-02-12T03:31:57;103116.59;;;6.36;100.00
69957;BME280;57283;54.816;9.482;2023-02-12T03:34:39;103120.19;;;6.41;100.00
69957;BME280;57283;54.816;9.482;2023-02-12T03:37:17;103120.47;;;6.50;100.00
69957;BME280;57283;54.816;9.482;2023-02-12T03:39:53;103124.63;;;6.45;100.00
69957;BME280;57283;54.816;9.482;2023-02-12T03:42:29;103091.47;;;6.35;100.00
69957;BME280;57283;54.816;9.482;2023-02-12T03:45:03;103114.66;;;6.28;100.00
69957;BME280;57283;54.816;9.482;2023-02-12T03:47:41;103120.56;;;6.54;100.00
69957;BME280;57283;54.816;9.482;2023-02-12T03:50:15;103112.75;;;6.53;100.00
69957;BME280;57283;54.816;9.482;2023-02-12T03:52:44;103124.41;;;6.67;100.00
69957;BME280;57283;54.816;9.482;2023-02-12T03:55:14;103115.19;;;6.47;100.00
69957;BME280;57283;54.816;9.482;2023-02-12T03:57:45;103127.47;;;6.52;100.00
69957;BME280;57283;54.816;9.482;2023-02-12T04:00:17;103121.09;;;6.43;100.00
69957;BME280;57283;54.816;9.482;2023-02-12T04:02:47;103129.00;;;6.46;100.00
69957;BME280;57283;54.816;9.482;2023-02-12T04:05:17;103132.50;;;6.48;100.00
69957;BME280;57283;54.816;9.482;2023-02-12T04:07:45;103142.72;;;6.42;100.00
69957;BME280;57283;54.816;9.482;2023-02-12T04:10:14;103142.06;;;6.49;100.00
69957;BME280;57283;54.816;9.482;2023-02-12T04:12:47;103144.66;;;6.49;100.00
69957;BME280;57283;54.816;9.482;2023-02-12T04:15:30;103135.75;;;6.41;100.00
69957;BME280;57283;54.816;9.482;2023-02-12T04:18:09;103134.91;;;6.42;100.00
69957;BME280;57283;54.816;9.482;2023-02-12T04:20:47;103144.63;;;6.47;100.00
69957;BME280;57283;54.816;9.482;2023-02-12T04:23:34;103131.34;;;6.38;100.00
69957;BME280;57283;54.816;9.482;2023-02-12T04:26:12;103136.13;;;6.53;100.00
69957;BME280;57283;54.816;9.482;2023-02-12T04:28:49;103134.00;;;6.40;100.00
69957;BME280;57283;54.816;9.482;2023-02-12T04:31:22;103142.25;;;6.56;100.00
69957;BME280;57283;54.816;9.482;2023-02-12T04:34:00;103109.84;;;6.42;100.00
69957;BME280;57283;54.816;9.482;2023-02-12T04:36:34;103147.81;;;6.39;100.00
69957;BME280;57283;54.816;9.482;2023-02-12T04:39:07;103143.03;;;6.54;100.00
69957;BME280;57283;54.816;9.482;2023-02-12T04:41:38;103147.31;;;6.50;100.00
69957;BME280;57283;54.816;9.482;2023-02-12T04:44:14;103146.22;;;6.44;100.00
69957;BME280;57283;54.816;9.482;2023-02-12T04:46:42;103140.44;;;6.54;100.00
69957;BME280;57283;54.816;9.482;2023-02-12T04:49:14;103148.34;;;6.57;100.00
69957;BME280;57283;54.816;9.482;2023-02-12T04:51:43;103121.69;;;6.33;100.00
69957;BME280;57283;54.816;9.482;2023-02-12T04:54:12;103138.97;;;6.62;100.00
69957;BME280;57283;54.816;9.482;2023-02-12T04:56:40;103143.94;;;6.54;100.00
69957;BME280;57283;54.816;9.482;2023-02-12T04:59:08;103140.03;;;6.69;100.00
69957;BME280;57283;54.816;9.482;2023-02-12T05:01:37;103143.22;;;6.60;100.00
69957;BME280;57283;54.816;9.482;2023-02-12T05:04:06;103147.72;;;6.65;100.00
69957;BME280;57283;54.816;9.482;2023-02-12T05:06:37;103145.31;;;6.73;100.00
69957;BME280;57283;54.816;9.482;2023-02-12T05:09:06;103143.41;;;6.66;100.00
69957;BME280;57283;54.816;9.482;2023-02-12T05:11:34;103148.75;;;6.72;100.00
69957;BME280;57283;54.816;9.482;2023-02-12T05:14:02;103146.00;;;6.66;100.00
69957;BME280;57283;54.816;9.482;2023-02-12T05:16:30;103147.19;;;6.77;100.00
69957;BME280;57283;54.816;9.482;2023-02-12T05:18:58;103149.97;;;6.83;100.00
69957;BME280;57283;54.816;9.482;2023-02-12T05:21:26;103145.50;;;6.79;100.00
69957;BME280;57283;54.816;9.482;2023-02-12T05:23:55;103144.91;;;6.89;100.00
69957;BME280;57283;54.816;9.482;2023-02-12T05:26:23;103146.53;;;6.84;100.00
69957;BME280;57283;54.816;9.482;2023-02-12T05:28:51;103137.53;;;6.73;100.00
69957;BME280;57283;54.816;9.482;2023-02-12T05:31:19;103112.53;;;6.77;100.00
69957;BME280;57283;54.816;9.482;2023-02-12T05:33:48;103140.41;;;6.82;100.00
69957;BME280;57283;54.816;9.482;2023-02-12T05:36:18;103144.91;;;6.89;100.00
69957;BME280;57283;54.816;9.482;2023-02-12T05:38:46;103144.84;;;6.86;100.00
69957;BME280;57283;54.816;9.482;2023-02-12T05:41:18;103064.09;;;6.46;100.00
69957;BME280;57283;54.816;9.482;2023-02-12T05:43:46;103156.06;;;6.85;100.00
69957;BME280;57283;54.816;9.482;2023-02-12T05:46:16;103151.13;;;6.94;100.00
69957;BME280;57283;54.816;9.482;2023-02-12T05:48:44;103124.66;;;6.76;100.00
69957;BME280;57283;54.816;9.482;2023-02-12T05:51:14;103146.66;;;6.90;100.00
69957;BME280;57283;54.816;9.482;2023-02-12T05:53:43;103147.59;;;6.92;100.00
69957;BME280;57283;54.816;9.482;2023-02-12T05:56:12;103115.34;;;6.84;100.00
69957;BME280;57283;54.816;9.482;2023-02-12T05:58:43;103149.63;;;7.03;100.00
69957;BME280;57283;54.816;9.482;2023-02-12T06:01:13;103103.97;;;6.48;100.00
69957;BME280;57283;54.816;9.482;2023-02-12T06:03:41;103155.16;;;6.83;100.00
69957;BME280;57283;54.816;9.482;2023-02-12T06:06:10;103155.59;;;7.00;100.00
69957;BME280;57283;54.816;9.482;2023-02-12T06:08:38;103152.97;;;6.98;100.00
69957;BME280;57283;54.816;9.482;2023-02-12T06:11:08;103152.31;;;7.07;100.00
69957;BME280;57283;54.816;9.482;2023-02-12T06:13:37;103158.16;;;6.98;100.00
69957;BME280;57283;54.816;9.482;2023-02-12T06:16:06;103159.91;;;6.99;100.00
69957;BME280;57283;54.816;9.482;2023-02-12T06:18:34;103158.31;;;7.05;100.00
69957;BME280;57283;54.816;9.482;2023-02-12T06:21:03;103164.38;;;7.04;100.00
69957;BME280;57283;54.816;9.482;2023-02-12T06:23:30;103160.53;;;6.91;100.00
69957;BME280;57283;54.816;9.482;2023-02-12T06:25:58;103162.16;;;6.87;100.00
69957;BME280;57283;54.816;9.482;2023-02-12T06:28:26;103161.88;;;6.77;100.00
69957;BME280;57283;54.816;9.482;2023-02-12T06:30:54;103136.69;;;6.74;100.00
69957;BME280;57283;54.816;9.482;2023-02-12T06:33:23;103170.75;;;6.83;100.00
69957;BME280;57283;54.816;9.482;2023-02-12T06:35:51;103174.53;;;6.96;100.00
69957;BME280;57283;54.816;9.482;2023-02-12T06:38:19;103177.19;;;6.97;100.00
69957;BME280;57283;54.816;9.482;2023-02-12T06:40:47;103162.84;;;6.80;100.00
69957;BME280;57283;54.816;9.482;2023-02-12T06:43:15;103177.06;;;6.93;100.00
69957;BME280;57283;54.816;9.482;2023-02-12T06:45:43;103178.63;;;6.86;100.00
69957;BME280;57283;54.816;9.482;2023-02-12T06:48:11;103180.91;;;6.76;100.00
69957;BME280;57283;54.816;9.482;2023-02-12T06:50:40;103166.56;;;6.58;100.00
69957;BME280;57283;54.816;9.482;2023-02-12T06:53:08;103171.66;;;6.55;100.00
69957;BME280;57283;54.816;9.482;2023-02-12T06:55:35;103178.53;;;6.53;100.00
69957;BME280;57283;54.816;9.482;2023-02-12T06:58:03;103194.81;;;6.48;100.00
69957;BME280;57283;54.816;9.482;2023-02-12T07:00:31;103192.13;;;6.45;100.00
69957;BME280;57283;54.816;9.482;2023-02-12T07:02:59;103140.03;;;6.10;100.00
69957;BME280;57283;54.816;9.482;2023-02-12T07:05:27;103201.78;;;6.49;100.00
69957;BME280;57283;54.816;9.482;2023-02-12T07:07:56;103156.03;;;6.24;100.00
69957;BME280;57283;54.816;9.482;2023-02-12T07:10:24;103208.34;;;6.38;100.00
69957;BME280;57283;54.816;9.482;2023-02-12T07:12:52;103202.75;;;6.52;100.00
69957;BME280;57283;54.816;9.482;2023-02-12T07:15:20;103207.22;;;6.58;100.00
69957;BME280;57283;54.816;9.482;2023-02-12T07:17:48;103223.00;;;6.64;100.00
69957;BME280;57283;54.816;9.482;2023-02-12T07:20:16;103219.66;;;6.68;100.00
69957;BME280;57283;54.816;9.482;2023-02-12T07:22:43;103225.72;;;6.69;100.00
69957;BME280;57283;54.816;9.482;2023-02-12T07:25:13;103225.97;;;6.78;100.00
69957;BME280;57283;54.816;9.482;2023-02-12T07:27:40;103226.84;;;6.78;100.00
69957;BME280;57283;54.816;9.482;2023-02-12T07:30:09;103226.25;;;6.87;100.00
69957;BME280;57283;54.816;9.482;2023-02-12T07:32:37;103218.31;;;6.82;100.00
69957;BME280;57283;54.816;9.482;2023-02-12T07:35:05;103231.44;;;6.87;100.00
69957;BME280;57283;54.816;9.482;2023-02-12T07:37:33;103237.59;;;6.90;100.00
69957;BME280;57283;54.816;9.482;2023-02-12T07:40:02;103237.50;;;6.87;100.00
69957;BME280;57283;54.816;9.482;2023-02-12T07:42:31;103241.22;;;6.95;100.00
69957;BME280;57283;54.816;9.482;2023-02-12T07:44:59;103239.53;;;6.97;100.00
69957;BME280;57283;54.816;9.482;2023-02-12T07:47:27;103249.25;;;7.05;100.00
69957;BME280;57283;54.816;9.482;2023-02-12T07:49:54;103244.97;;;7.07;100.00
69957;BME280;57283;54.816;9.482;2023-02-12T07:52:22;103252.03;;;7.11;100.00
69957;BME280;57283;54.816;9.482;2023-02-12T07:54:50;103220.50;;;6.98;100.00
69957;BME280;57283;54.816;9.482;2023-02-12T07:57:18;103239.16;;;7.15;100.00
69957;BME280;57283;54.816;9.482;2023-02-12T07:59:47;103248.78;;;7.18;100.00
69957;BME280;57283;54.816;9.482;2023-02-12T08:02:15;103261.25;;;7.31;100.00
69957;BME280;57283;54.816;9.482;2023-02-12T08:04:43;103263.03;;;7.32;100.00
69957;BME280;57283;54.816;9.482;2023-02-12T08:07:11;103262.63;;;7.50;100.00
69957;BME280;57283;54.816;9.482;2023-02-12T08:09:38;103266.50;;;7.65;100.00
69957;BME280;57283;54.816;9.482;2023-02-12T08:12:06;103267.66;;;7.77;100.00
69957;BME280;57283;54.816;9.482;2023-02-12T08:14:34;103275.59;;;7.81;100.00
69957;BME280;57283;54.816;9.482;2023-02-12T08:17:03;103274.13;;;7.92;100.00
69957;BME280;57283;54.816;9.482;2023-02-12T08:19:31;103272.44;;;7.94;100.00
69957;BME280;57283;54.816;9.482;2023-02-12T08:21:59;103271.41;;;7.88;100.00
69957;BME280;57283;54.816;9.482;2023-02-12T08:24:29;103274.16;;;7.94;100.00
69957;BME280;57283;54.816;9.482;2023-02-12T08:26:57;103278.81;;;8.07;100.00
69957;BME280;57283;54.816;9.482;2023-02-12T08:29:27;103219.16;;;7.79;100.00
69957;BME280;57283;54.816;9.482;2023-02-12T08:31:56;103269.59;;;8.20;100.00
69957;BME280;57283;54.816;9.482;2023-02-12T08:34:27;103270.47;;;8.20;100.00
69957;BME280;57283;54.816;9.482;2023-02-12T08:36:57;103202.59;;;7.75;100.00
69957;BME280;57283;54.816;9.482;2023-02-12T08:39:26;103270.25;;;8.11;100.00
69957;BME280;57283;54.816;9.482;2023-02-12T08:41:55;103264.03;;;8.06;100.00
69957;BME280;57283;54.816;9.482;2023-02-12T08:44:24;103251.78;;;8.00;100.00
69957;BME280;57283;54.816;9.482;2023-02-12T08:46:54;103266.38;;;8.30;100.00
69957;BME280;57283;54.816;9.482;2023-02-12T08:49:24;103245.81;;;8.06;100.00
69957;BME280;57283;54.816;9.482;2023-02-12T08:51:55;103286.31;;;8.29;100.00
69957;BME280;57283;54.816;9.482;2023-02-12T08:54:24;103281.22;;;8.32;100.00
69957;BME280;57283;54.816;9.482;2023-02-12T08:56:54;103286.69;;;8.45;100.00
69957;BME280;57283;54.816;9.482;2023-02-12T08:59:23;103286.22;;;8.26;100.00
69957;BME280;57283;54.816;9.482;2023-02-12T09:01:52;103290.28;;;8.50;100.00
69957;BME280;57283;54.816;9.482;2023-02-12T09:04:22;103298.88;;;8.46;100.00
69957;BME280;57283;54.816;9.482;2023-02-12T09:06:52;103296.56;;;8.59;100.00
69957;BME280;57283;54.816;9.482;2023-02-12T09:09:21;103272.09;;;8.51;100.00
69957;BME280;57283;54.816;9.482;2023-02-12T09:11:49;103294.56;;;8.85;100.00
69957;BME280;57283;54.816;9.482;2023-02-12T09:14:18;103302.84;;;8.67;100.00
69957;BME280;57283;54.816;9.482;2023-02-12T09:16:49;103307.19;;;8.67;100.00
69957;BME280;57283;54.816;9.482;2023-02-12T09:19:19;103284.00;;;8.79;100.00
69957;BME280;57283;54.816;9.482;2023-02-12T09:21:49;103294.81;;;8.97;100.00
69957;BME280;57283;54.816;9.482;2023-02-12T09:24:22;103300.63;;;8.84;100.00
69957;BME280;57283;54.816;9.482;2023-02-12T09:26:50;103183.47;;;8.48;100.00
69957;BME280;57283;54.816;9.482;2023-02-12T09:29:18;103303.00;;;8.75;100.00
69957;BME280;57283;54.816;9.482;2023-02-12T09:31:46;103294.59;;;8.88;100.00
69957;BME280;57283;54.816;9.482;2023-02-12T09:34:14;103298.59;;;9.13;100.00
69957;BME280;57283;54.816;9.482;2023-02-12T09:36:42;103292.44;;;9.09;100.00
69957;BME280;57283;54.816;9.482;2023-02-12T09:39:10;103304.66;;;9.12;100.00
69957;BME280;57283;54.816;9.482;2023-02-12T09:44:55;103288.66;;;9.39;100.00
69957;BME280;57283;54.816;9.482;2023-02-12T09:47:32;103307.38;;;9.62;100.00
69957;BME280;57283;54.816;9.482;2023-02-12T09:50:11;103288.66;;;9.39;100.00
69957;BME280;57283;54.816;9.482;2023-02-12T09:52:44;103303.09;;;9.20;100.00
69957;BME280;57283;54.816;9.482;2023-02-12T09:55:14;103312.19;;;9.40;100.00
69957;BME280;57283;54.816;9.482;2023-02-12T09:57:43;103298.88;;;9.27;100.00
69957;BME280;57283;54.816;9.482;2023-02-12T10:00:17;103309.19;;;9.21;100.00
69957;BME280;57283;54.816;9.482;2023-02-12T10:02:51;103314.88;;;9.45;100.00
69957;BME280;57283;54.816;9.482;2023-02-12T10:05:24;103315.09;;;9.57;100.00
69957;BME280;57283;54.816;9.482;2023-02-12T10:08:03;103311.50;;;9.49;100.00
69957;BME280;57283;54.816;9.482;2023-02-12T10:10:45;103318.28;;;9.41;100.00
69957;BME280;57283;54.816;9.482;2023-02-12T10:13:23;103326.41;;;9.13;100.00
69957;BME280;57283;54.816;9.482;2023-02-12T10:16:00;103322.16;;;9.61;100.00
69957;BME280;57283;54.816;9.482;2023-02-12T10:18:41;103321.44;;;9.25;100.00
69957;BME280;57283;54.816;9.482;2023-02-12T10:21:24;103212.66;;;8.74;100.00
69957;BME280;57283;54.816;9.482;2023-02-12T10:24:17;103313.06;;;9.88;100.00
69957;BME280;57283;54.816;9.482;2023-02-12T10:26:54;103310.50;;;9.91;100.00
69957;BME280;57283;54.816;9.482;2023-02-12T10:29:29;103294.53;;;10.24;100.00
69957;BME280;57283;54.816;9.482;2023-02-12T10:32:04;103294.59;;;10.27;100.00
69957;BME280;57283;54.816;9.482;2023-02-12T10:34:34;103301.81;;;10.44;100.00
69957;BME280;57283;54.816;9.482;2023-02-12T10:37:04;103255.53;;;10.34;100.00
69957;BME280;57283;54.816;9.482;2023-02-12T10:39:41;103296.69;;;10.49;100.00
69957;BME280;57283;54.816;9.482;2023-02-12T10:42:16;103264.06;;;10.24;100.00
69957;BME280;57283;54.816;9.482;2023-02-12T10:44:45;103299.53;;;10.11;100.00
69957;BME280;57283;54.816;9.482;2023-02-12T10:47:17;103288.69;;;9.86;100.00
69957;BME280;57283;54.816;9.482;2023-02-12T10:50:00;103290.50;;;9.91;100.00
69957;BME280;57283;54.816;9.482;2023-02-12T10:52:42;103128.59;;;8.83;100.00
69957;BME280;57283;54.816;9.482;2023-02-12T10:55:24;103303.22;;;9.73;100.00
69957;BME280;57283;54.816;9.482;2023-02-12T10:57:52;103283.66;;;9.48;100.00
69957;BME280;57283;54.816;9.482;2023-02-12T11:00:26;103297.72;;;10.07;100.00
69957;BME280;57283;54.816;9.482;2023-02-12T11:03:04;103294.28;;;10.10;100.00
69957;BME280;57283;54.816;9.482;2023-02-12T11:05:34;103289.56;;;10.39;100.00
69957;BME280;57283;54.816;9.482;2023-02-12T11:08:03;103233.56;;;10.20;100.00
69957;BME280;57283;54.816;9.482;2023-02-12T11:10:36;103269.88;;;10.64;100.00
69957;BME280;57283;54.816;9.482;2023-02-12T11:13:05;103281.06;;;10.54;100.00
69957;BME280;57283;54.816;9.482;2023-02-12T11:15:36;103271.72;;;10.71;100.00
69957;BME280;57283;54.816;9.482;2023-02-12T11:18:07;103284.09;;;10.84;100.00
69957;BME280;57283;54.816;9.482;2023-02-12T11:20:37;103288.63;;;10.35;100.00
69957;BME280;57283;54.816;9.482;2023-02-12T11:23:24;103272.16;;;9.87;100.00
69957;BME280;57283;54.816;9.482;2023-02-12T11:25:58;103272.81;;;10.26;100.00
69957;BME280;57283;54.816;9.482;2023-02-12T11:28:26;103271.22;;;10.34;100.00
69957;BME280;57283;54.816;9.482;2023-02-12T11:30:58;103277.31;;;10.35;100.00
69957;BME280;57283;54.816;9.482;2023-02-12T11:33:30;103255.94;;;10.63;100.00
69957;BME280;57283;54.816;9.482;2023-02-12T11:36:01;103265.03;;;10.94;100.00
69957;BME280;57283;54.816;9.482;2023-02-12T11:38:35;103269.56;;;11.06;100.00
69957;BME280;57283;54.816;9.482;2023-02-12T11:41:13;103261.69;;;11.04;100.00
69957;BME280;57283;54.816;9.482;2023-02-12T11:43:46;103238.84;;;10.88;100.00
69957;BME280;57283;54.816;9.482;2023-02-12T11:46:18;103259.09;;;11.07;100.00
69957;BME280;57283;54.816;9.482;2023-02-12T11:48:48;103259.13;;;10.44;100.00
69957;BME280;57283;54.816;9.482;2023-02-12T11:51:19;103269.94;;;10.67;100.00
69957;BME280;57283;54.816;9.482;2023-02-12T11:53:51;103273.19;;;10.51;100.00
69957;BME280;57283;54.816;9.482;2023-02-12T11:56:20;103271.06;;;10.25;100.00
69957;BME280;57283;54.816;9.482;2023-02-12T11:58:49;103265.59;;;10.69;100.00
69957;BME280;57283;54.816;9.482;2023-02-12T12:01:21;103261.91;;;11.23;100.00
69957;BME280;57283;54.816;9.482;2023-02-12T12:03:59;103276.56;;;9.91;100.00
69957;BME280;57283;54.816;9.482;2023-02-12T12:06:33;103254.53;;;10.91;100.00
69957;BME280;57283;54.816;9.482;2023-02-12T12:09:06;103255.53;;;11.01;100.00
69957;BME280;57283;54.816;9.482;2023-02-12T12:11:45;103255.28;;;10.79;100.00
69957;BME280;57283;54.816;9.482;2023-02-12T12:14:19;103209.19;;;10.88;100.00
69957;BME280;57283;54.816;9.482;2023-02-12T12:16:54;103236.47;;;11.11;100.00
69957;BME280;57283;54.816;9.482;2023-02-12T12:19:47;103209.19;;;10.86;100.00
69957;BME280;57283;54.816;9.482;2023-02-12T12:22:41;103248.75;;;11.18;100.00
69957;BME280;57283;54.816;9.482;2023-02-12T12:25:19;103250.13;;;10.86;100.00
69957;BME280;57283;54.816;9.482;2023-02-12T12:27:56;103243.66;;;10.58;100.00
69957;BME280;57283;54.816;9.482;2023-02-12T12:30:39;103218.59;;;10.73;100.00
69957;BME280;57283;54.816;9.482;2023-02-12T12:33:14;103242.88;;;10.65;100.00
69957;BME280;57283;54.816;9.482;2023-02-12T12:35:52;103218.38;;;10.57;100.00
69957;BME280;57283;54.816;9.482;2023-02-12T12:38:33;103231.44;;;10.54;100.00
69957;BME280;57283;54.816;9.482;2023-02-12T12:41:13;103244.59;;;10.04;100.00
69957;BME280;57283;54.816;9.482;2023-02-12T12:43:54;103223.44;;;10.44;100.00
69957;BME280;57283;54.816;9.482;2023-02-12T12:46:33;103210.66;;;10.66;100.00
69957;BME280;57283;54.816;9.482;2023-02-12T12:49:25;103218.97;;;9.80;100.00
69957;BME280;57283;54.816;9.482;2023-02-12T12:52:38;103211.16;;;10.36;100.00
69957;BME280;57283;54.816;9.482;2023-02-12T12:55:23;103218.56;;;10.70;100.00
69957;BME280;57283;54.816;9.482;2023-02-12T12:58:04;103171.06;;;11.09;100.00
69957;BME280;57283;54.816;9.482;2023-02-12T13:00:44;103209.59;;;11.26;100.00
69957;BME280;57283;54.816;9.482;2023-02-12T13:03:34;103204.53;;;11.44;100.00
69957;BME280;57283;54.816;9.482;2023-02-12T13:06:20;103187.06;;;10.61;100.00
69957;BME280;57283;54.816;9.482;2023-02-12T13:09:02;103213.47;;;10.82;100.00
69957;BME280;57283;54.816;9.482;2023-02-12T13:11:40;103218.56;;;10.70;100.00
69957;BME280;57283;54.816;9.482;2023-02-12T13:14:23;103200.31;;;10.72;100.00
69957;BME280;57283;54.816;9.482;2023-02-12T13:16:59;103204.69;;;10.77;100.00